Pays
Station

 

Conditions  météo  pour  Watertown, Watertown Municipal Airport  -  Etats-Unis    Etats-Unis

  
-4 °C
    
 
 

METAR pour Watertown, Watertown Municipal Airport :

KATY 211653Z AUTO 22010KT 10SM CLR M04/M07 A3012 RMK AO2 SLP229 T10391072

 

Voici le bulletin pour Watertown, Watertown Municipal Airport - Etats-Unis.
 
Le bulletin a été fait il y a 35 minutes, à 16:53 UTC .
Le vent soufflait à la vitesse de 5.1 mètres par seconde de Sud-ouest (220°).
 
La température était de -4 °C, avec un point de rosée à -7 °C.
La température ressentie était de -10 °C.
 
La pression atmosphérique était de 1020 hPa.
L'humidité relative était de 79.5%.
 
Le ciel était clair.
 
La visibilité globale était de 16.1 kilomètres.
 

 
 
 

Pays :   A   B   C   D   E   F   G   H   I   J   K   L   M   N   O   P   Q   R   S   T   U   V   W   Y   Z

 

Partenaires :  Info Météo avec Met'info
Météo Marine avec MeteoMarine.net
Infos Site  |  Infos Légales  |  Crédits  |  Confidentialité
Contactez-nous  |  Ajouter aux favoris
© 2013-2020 METAR - Tous droits réservés